createdAt,value
2019-06-08T00:00:46.578Z,1004.37
2019-06-08T00:01:47.403Z,1004.32
2019-06-08T00:02:47.819Z,1004.29
2019-06-08T00:03:48.130Z,1004.20
2019-06-08T00:04:48.452Z,1004.31
2019-06-08T00:05:48.659Z,1004.25
2019-06-08T00:06:48.665Z,1004.17
2019-06-08T00:07:48.981Z,1004.18
2019-06-08T00:08:49.728Z,1004.13
2019-06-08T00:09:49.095Z,1004.22
2019-06-08T00:10:49.958Z,1004.11
2019-06-08T00:11:50.132Z,1003.97
2019-06-08T00:12:50.144Z,1004.10
2019-06-08T00:13:50.663Z,1004.15
2019-06-08T00:14:50.356Z,1004.05
2019-06-08T00:15:50.217Z,1004.05
2019-06-08T00:16:50.980Z,1004.14
2019-06-08T00:17:51.338Z,1004.11
2019-06-08T00:18:51.158Z,1004.19
2019-06-08T00:19:52.026Z,1004.08
2019-06-08T00:20:52.137Z,1004.08
2019-06-08T00:21:52.245Z,1004.08
2019-06-08T00:22:52.463Z,1004.06
2019-06-08T00:23:52.781Z,1004.04
2019-06-08T00:24:52.646Z,1004.09
2019-06-08T00:25:53.295Z,1004.00
2019-06-08T00:26:53.507Z,1004.06
2019-06-08T00:27:53.519Z,1004.09
2019-06-08T00:28:53.367Z,1004.08
2019-06-08T00:30:54.158Z,1004.06
2019-06-08T00:31:54.157Z,1004.13
2019-06-08T00:32:55.080Z,1004.06
2019-06-08T00:33:55.296Z,1004.15
2019-06-08T00:34:55.161Z,1004.13
2019-06-08T00:35:55.916Z,1004.23
2019-06-08T00:36:56.133Z,1004.27
2019-06-08T00:37:56.358Z,1004.31
2019-06-08T00:38:56.455Z,1004.36
2019-06-08T00:39:56.363Z,1004.21
2019-06-08T00:40:57.602Z,1004.35
2019-06-08T00:41:56.985Z,1004.22
2019-06-08T00:42:57.501Z,1004.25
2019-06-08T00:43:57.713Z,1004.30
2019-06-08T00:44:57.575Z,1004.36
2019-06-08T00:45:57.996Z,1004.37
2019-06-08T00:46:58.863Z,1004.31
2019-06-08T00:47:59.273Z,1004.27
2019-06-08T00:48:59.325Z,1004.31
2019-06-08T00:49:59.693Z,1004.10
2019-06-08T00:51:00.117Z,1004.10
2019-06-08T00:52:00.330Z,1004.14
2019-06-08T00:53:00.305Z,1004.12
2019-06-08T00:54:00.953Z,1004.09
2019-06-08T00:55:01.700Z,1004.24
2019-06-08T00:56:01.805Z,1004.26
2019-06-08T00:57:02.205Z,1004.25
2019-06-08T00:58:02.484Z,1004.28
2019-06-08T00:59:02.732Z,1004.36
2019-06-08T01:00:10.376Z,1004.37
2019-06-08T01:01:03.273Z,1004.50
2019-06-08T01:02:03.594Z,1004.40
2019-06-08T01:03:03.471Z,1004.36
2019-06-08T01:04:03.902Z,1004.29
2019-06-08T01:05:04.420Z,1004.44
2019-06-08T01:06:04.620Z,1004.44
2019-06-08T01:07:04.014Z,1004.43
2019-06-08T01:08:05.058Z,1004.43
2019-06-08T01:09:05.165Z,1004.44
2019-06-08T01:10:05.071Z,1004.37
2019-06-08T01:11:05.160Z,1004.41
2019-06-08T01:12:05.577Z,1004.50
2019-06-08T01:13:05.864Z,1004.43
2019-06-08T01:14:05.812Z,1004.55
2019-06-08T01:15:06.402Z,1004.54
2019-06-08T01:16:06.633Z,1004.63
2019-06-08T01:17:06.873Z,1004.62
2019-06-08T01:18:07.254Z,1004.58
2019-06-08T01:19:07.672Z,1004.47
2019-06-08T01:20:08.218Z,1004.38
2019-06-08T01:21:07.931Z,1004.63
2019-06-08T01:22:08.765Z,1004.57
2019-06-08T01:23:08.208Z,1004.63
2019-06-08T01:24:09.060Z,1004.62
2019-06-08T01:25:09.047Z,1004.70
2019-06-08T01:26:09.984Z,1004.77
2019-06-08T01:27:09.873Z,1004.64
2019-06-08T01:28:10.600Z,1004.79
2019-06-08T01:29:10.608Z,1004.85
2019-06-08T01:30:10.621Z,1004.80
2019-06-08T01:31:10.832Z,1004.87
2019-06-08T01:32:11.338Z,1004.91
2019-06-08T01:33:11.149Z,1004.92
2019-06-08T01:34:11.146Z,1004.90
2019-06-08T01:35:11.970Z,1004.92
2019-06-08T01:36:12.193Z,1004.89
2019-06-08T01:37:12.602Z,1004.86
2019-06-08T01:38:12.814Z,1004.86
2019-06-08T01:39:13.021Z,1004.92
2019-06-08T01:40:13.443Z,1004.87
2019-06-08T01:41:13.236Z,1004.92
2019-06-08T01:42:14.125Z,1004.78
2019-06-08T01:43:14.067Z,1004.75
2019-06-08T01:45:15.418Z,1004.75
2019-06-08T01:46:15.093Z,1004.88
2019-06-08T01:47:15.535Z,1004.81
2019-06-08T01:48:19.954Z,1004.89
2019-06-08T01:49:15.392Z,1004.90
2019-06-08T01:50:16.782Z,1004.98
2019-06-08T01:51:16.492Z,1004.89
2019-06-08T01:52:16.515Z,1004.84
2019-06-08T01:53:17.410Z,1004.86
2019-06-08T01:54:17.629Z,1004.96
2019-06-08T01:55:18.043Z,1004.84
2019-06-08T01:56:18.471Z,1004.90
2019-06-08T01:57:18.804Z,1005.08
2019-06-08T01:58:18.838Z,1005.00
2019-06-08T01:59:19.341Z,1005.05
2019-06-08T02:00:29.739Z,1005.05
2019-06-08T02:01:19.399Z,1005.01
2019-06-08T02:02:19.876Z,1005.06
2019-06-08T02:03:20.183Z,1005.04
2019-06-08T02:04:20.142Z,1005.08
2019-06-08T02:05:20.523Z,1005.17
2019-06-08T02:06:20.826Z,1005.14
2019-06-08T02:07:21.153Z,1005.19
2019-06-08T02:08:21.815Z,1005.33
2019-06-08T02:09:22.062Z,1005.42
2019-06-08T02:10:22.230Z,1005.48
2019-06-08T02:11:22.323Z,1005.25
2019-06-08T02:12:22.203Z,1005.17
2019-06-08T02:13:23.055Z,1005.15
2019-06-08T02:15:23.038Z,1005.18
2019-06-08T02:16:23.214Z,1005.33
2019-06-08T02:17:23.719Z,1005.30
2019-06-08T02:18:36.622Z,1005.31
2019-06-08T02:19:23.586Z,1005.31
2019-06-08T02:20:24.196Z,1005.28
2019-06-08T02:21:24.760Z,1005.23
2019-06-08T02:22:24.271Z,1005.33
2019-06-08T02:23:25.088Z,1005.39
2019-06-08T02:24:25.099Z,1005.32
2019-06-08T02:25:27.291Z,1005.42
2019-06-08T02:26:27.590Z,1005.40
2019-06-08T02:27:27.217Z,1005.33
2019-06-08T02:28:27.418Z,1005.32
2019-06-08T02:29:27.429Z,1005.22
2019-06-08T02:30:28.278Z,1005.37
2019-06-08T02:31:28.017Z,1005.41
2019-06-08T02:32:28.633Z,1005.35
2019-06-08T02:34:28.907Z,1005.64
2019-06-08T02:35:28.446Z,1005.66
2019-06-08T02:36:31.077Z,1005.60
2019-06-08T02:37:30.801Z,1005.64
2019-06-08T02:38:31.602Z,1005.52
2019-06-08T02:39:30.391Z,1005.57
2019-06-08T02:40:30.286Z,1005.57
2019-06-08T02:41:30.810Z,1005.54
2019-06-08T02:42:32.633Z,1005.68
2019-06-08T02:43:30.848Z,1005.70
2019-06-08T02:44:32.075Z,1005.64
2019-06-08T02:45:32.134Z,1005.59
2019-06-08T02:46:33.158Z,1005.67
2019-06-08T02:47:32.552Z,1005.66
2019-06-08T02:48:33.613Z,1005.62
2019-06-08T02:49:33.143Z,1005.64
2019-06-08T02:50:33.076Z,1005.62
2019-06-08T02:51:34.327Z,1005.57
2019-06-08T02:52:34.329Z,1005.66
2019-06-08T02:53:34.130Z,1005.70
2019-06-08T02:54:35.339Z,1005.61
2019-06-08T02:55:35.666Z,1005.67
2019-06-08T02:56:34.289Z,1005.67
2019-06-08T02:57:35.585Z,1005.67
2019-06-08T02:58:36.989Z,1005.60
2019-06-08T02:59:35.655Z,1005.83
2019-06-08T03:00:35.603Z,1005.72
2019-06-08T03:01:36.158Z,1005.77
2019-06-08T03:02:36.964Z,1005.82
2019-06-08T03:03:38.365Z,1005.81
2019-06-08T03:04:38.120Z,1005.83
2019-06-08T03:05:38.117Z,1005.84
2019-06-08T03:06:39.445Z,1005.96
2019-06-08T03:07:38.959Z,1005.85
2019-06-08T03:08:38.973Z,1005.81
2019-06-08T03:09:38.647Z,1005.76
2019-06-08T03:10:39.264Z,1005.82
2019-06-08T03:11:39.264Z,1005.82
2019-06-08T03:12:40.352Z,1005.66
2019-06-08T03:13:40.352Z,1005.73
2019-06-08T03:14:40.172Z,1005.80
2019-06-08T03:15:41.541Z,1005.78
2019-06-08T03:16:41.517Z,1005.80
2019-06-08T03:17:41.892Z,1005.82
2019-06-08T03:18:42.381Z,1005.94
2019-06-08T03:19:41.943Z,1005.89
2019-06-08T03:20:42.420Z,1005.99
2019-06-08T03:21:42.321Z,1005.90
2019-06-08T03:22:43.876Z,1006.01
2019-06-08T03:23:43.506Z,1005.82
2019-06-08T03:24:44.141Z,1005.94
2019-06-08T03:25:51.942Z,1005.90
2019-06-08T03:26:44.096Z,1005.88
2019-06-08T03:27:43.140Z,1005.99
2019-06-08T03:28:44.367Z,1006.06
2019-06-08T03:29:44.089Z,1006.02
2019-06-08T03:30:52.828Z,1006.01
2019-06-08T03:31:54.647Z,1006.03
2019-06-08T03:32:50.545Z,1006.12
2019-06-08T03:33:53.139Z,1006.02
2019-06-08T03:34:54.779Z,1006.12
2019-06-08T03:35:56.039Z,1006.11
2019-06-08T03:36:54.475Z,1006.21
2019-06-08T03:37:44.890Z,1006.20
2019-06-08T03:38:45.661Z,1006.24
2019-06-08T03:39:45.861Z,1006.20
2019-06-08T03:41:46.386Z,1006.17
2019-06-08T03:42:46.246Z,1006.28
2019-06-08T03:43:46.932Z,1006.34
2019-06-08T03:44:47.264Z,1006.35
2019-06-08T03:45:47.090Z,1006.29
2019-06-08T03:46:48.099Z,1006.27
2019-06-08T03:47:48.389Z,1006.32
2019-06-08T03:48:48.596Z,1006.39
2019-06-08T03:49:56.397Z,1006.48
2019-06-08T03:50:49.325Z,1006.47
2019-06-08T03:51:49.641Z,1006.42
2019-06-08T03:52:50.012Z,1006.41
2019-06-08T03:53:49.930Z,1006.58
2019-06-08T03:54:50.469Z,1006.49
2019-06-08T03:55:50.269Z,1006.62
2019-06-08T03:56:51.095Z,1006.56
2019-06-08T03:57:51.720Z,1006.55
2019-06-08T03:58:51.173Z,1006.58
2019-06-08T03:59:51.933Z,1006.54
2019-06-08T04:00:52.455Z,1006.68
2019-06-08T04:01:51.788Z,1006.75
2019-06-08T04:02:52.369Z,1006.61
2019-06-08T04:03:52.489Z,1006.60
2019-06-08T04:04:52.474Z,1006.72
2019-06-08T04:05:52.792Z,1006.60
2019-06-08T04:06:53.105Z,1006.75
2019-06-08T04:07:53.944Z,1006.81
2019-06-08T04:08:53.806Z,1006.88
2019-06-08T04:09:54.668Z,1006.91
2019-06-08T04:10:55.083Z,1006.88
2019-06-08T04:11:54.919Z,1006.94
2019-06-08T04:12:55.242Z,1007.04
2019-06-08T04:13:55.589Z,1006.97
2019-06-08T04:14:55.989Z,1006.89
2019-06-08T04:15:56.649Z,1006.94
2019-06-08T04:16:56.958Z,1007.04
2019-06-08T04:17:56.912Z,1007.07
2019-06-08T04:18:57.409Z,1006.98
2019-06-08T04:20:10.234Z,1007.02
2019-06-08T04:20:58.167Z,1007.03
2019-06-08T04:21:58.858Z,1007.13
2019-06-08T04:22:59.352Z,1007.20
2019-06-08T04:23:59.166Z,1007.21
2019-06-08T04:24:59.170Z,1007.19
2019-06-08T04:26:00.434Z,1007.06
2019-06-08T04:26:59.486Z,1007.35
2019-06-08T04:27:59.693Z,1007.35
2019-06-08T04:29:00.006Z,1007.36
2019-06-08T04:30:00.210Z,1007.25
2019-06-08T04:31:00.293Z,1007.37
2019-06-08T04:32:00.437Z,1007.29
2019-06-08T04:33:00.508Z,1007.26
2019-06-08T04:34:00.666Z,1007.17
2019-06-08T04:35:01.073Z,1007.22
2019-06-08T04:36:01.343Z,1007.25
2019-06-08T04:37:01.707Z,1007.26
2019-06-08T04:38:01.722Z,1007.37
2019-06-08T04:39:01.753Z,1007.51
2019-06-08T04:40:01.647Z,1007.53
2019-06-08T04:41:02.464Z,1007.63
2019-06-08T04:42:02.661Z,1007.48
2019-06-08T04:43:02.865Z,1007.40
2019-06-08T04:44:03.093Z,1007.47
2019-06-08T04:45:03.471Z,1007.46
2019-06-08T04:46:03.500Z,1007.45
2019-06-08T04:47:03.709Z,1007.57
2019-06-08T04:48:04.111Z,1007.61
2019-06-08T04:49:04.950Z,1007.52
2019-06-08T04:50:20.939Z,1007.43
2019-06-08T04:51:04.999Z,1007.60
2019-06-08T04:52:04.971Z,1007.60
2019-06-08T04:53:05.597Z,1007.50
2019-06-08T04:54:06.096Z,1007.59
2019-06-08T04:55:06.236Z,1007.70
2019-06-08T04:56:06.741Z,1007.74
2019-06-08T04:57:06.132Z,1007.65
2019-06-08T04:58:06.649Z,1007.73
2019-06-08T04:59:06.766Z,1007.68
2019-06-08T05:00:12.211Z,1007.80
2019-06-08T05:01:07.178Z,1007.73
2019-06-08T05:02:07.789Z,1007.78
2019-06-08T05:03:08.214Z,1007.71
2019-06-08T05:04:08.102Z,1007.72
2019-06-08T05:05:08.960Z,1007.78
2019-06-08T05:06:09.161Z,1007.72
2019-06-08T05:07:09.168Z,1007.60
2019-06-08T05:08:09.457Z,1007.62
2019-06-08T05:09:09.998Z,1007.74
2019-06-08T05:10:09.491Z,1007.77
2019-06-08T05:11:09.609Z,1007.75
2019-06-08T05:13:09.988Z,1007.77
2019-06-08T05:14:10.096Z,1007.78
2019-06-08T05:15:10.327Z,1007.83
2019-06-08T05:16:10.522Z,1007.83
2019-06-08T05:17:10.400Z,1007.84
2019-06-08T05:18:10.946Z,1007.79
2019-06-08T05:19:10.778Z,1007.79
2019-06-08T05:20:11.678Z,1007.79
2019-06-08T05:21:12.079Z,1007.77
2019-06-08T05:22:12.150Z,1007.94
2019-06-08T05:23:12.822Z,1007.78
2019-06-08T05:24:12.173Z,1007.87
2019-06-08T05:25:12.930Z,1007.99
2019-06-08T05:26:12.818Z,1007.93
2019-06-08T05:27:13.771Z,1007.87
2019-06-08T05:28:14.393Z,1007.90
2019-06-08T05:29:14.213Z,1007.91
2019-06-08T05:30:14.521Z,1008.03
2019-06-08T05:31:14.811Z,1008.00
2019-06-08T05:32:15.435Z,1008.03
2019-06-08T05:33:14.784Z,1007.98
2019-06-08T05:34:15.548Z,1008.01
2019-06-08T05:35:16.201Z,1008.05
2019-06-08T05:36:15.646Z,1008.13
2019-06-08T05:37:16.327Z,1007.97
2019-06-08T05:38:16.505Z,1008.10
2019-06-08T05:39:16.515Z,1008.00
2019-06-08T05:40:17.231Z,1008.12
2019-06-08T05:41:16.970Z,1008.12
2019-06-08T05:42:17.448Z,1008.09
2019-06-08T05:43:17.378Z,1007.99
2019-06-08T05:44:17.565Z,1008.01
2019-06-08T05:45:17.561Z,1008.16
2019-06-08T05:46:18.035Z,1008.20
2019-06-08T05:47:18.927Z,1008.05
2019-06-08T05:48:18.835Z,1008.17
2019-06-08T05:49:19.232Z,1008.13
2019-06-08T05:50:19.978Z,1008.20
2019-06-08T05:51:20.583Z,1008.22
2019-06-08T05:52:20.585Z,1008.30
2019-06-08T05:53:20.333Z,1008.27
2019-06-08T05:54:21.106Z,1008.15
2019-06-08T05:55:21.120Z,1008.28
2019-06-08T05:56:21.323Z,1008.29
2019-06-08T05:57:21.187Z,1008.34
2019-06-08T05:58:21.749Z,1008.33
2019-06-08T05:59:22.066Z,1008.28
2019-06-08T06:00:21.909Z,1008.41
2019-06-08T06:01:22.598Z,1008.31
2019-06-08T06:02:22.587Z,1008.24
2019-06-08T06:03:22.914Z,1008.28
2019-06-08T06:04:23.336Z,1008.29
2019-06-08T06:05:23.172Z,1008.26
2019-06-08T06:06:23.846Z,1008.31
2019-06-08T06:07:23.855Z,1008.35
2019-06-08T06:08:23.876Z,1008.32
2019-06-08T06:09:23.754Z,1008.32
2019-06-08T06:10:24.163Z,1008.37
2019-06-08T06:11:24.713Z,1008.23
2019-06-08T06:12:24.564Z,1008.33
2019-06-08T06:13:24.868Z,1008.29
2019-06-08T06:14:25.161Z,1008.34
2019-06-08T06:15:26.057Z,1008.33
2019-06-08T06:16:26.585Z,1008.21
2019-06-08T06:17:26.273Z,1008.30
2019-06-08T06:18:26.277Z,1008.33
2019-06-08T06:19:26.188Z,1008.38
2019-06-08T06:20:26.946Z,1008.34
2019-06-08T06:21:26.765Z,1008.36
2019-06-08T06:22:27.086Z,1008.35
2019-06-08T06:23:27.955Z,1008.40
2019-06-08T06:24:28.271Z,1008.42
2019-06-08T06:25:28.481Z,1008.36
2019-06-08T06:26:28.588Z,1008.38
2019-06-08T06:27:28.805Z,1008.43
2019-06-08T06:28:29.037Z,1008.49
2019-06-08T06:29:29.124Z,1008.44
2019-06-08T06:30:29.314Z,1008.47
2019-06-08T06:31:29.860Z,1008.45
2019-06-08T06:32:31.189Z,1008.46
2019-06-08T06:33:31.298Z,1008.50
2019-06-08T06:34:29.555Z,1008.57
2019-06-08T06:35:30.083Z,1008.52
2019-06-08T06:36:30.396Z,1008.58
2019-06-08T06:37:30.254Z,1008.52
2019-06-08T06:38:30.926Z,1008.64
2019-06-08T06:39:31.336Z,1008.65
2019-06-08T06:40:31.100Z,1008.73
2019-06-08T06:41:31.402Z,1008.75
2019-06-08T06:42:32.277Z,1008.58
2019-06-08T06:43:32.493Z,1008.70
2019-06-08T06:44:32.806Z,1008.76
2019-06-08T06:45:32.681Z,1008.77
2019-06-08T06:46:33.089Z,1009.09
2019-06-08T06:47:33.544Z,1008.78
2019-06-08T06:48:34.274Z,1008.80
2019-06-08T06:49:34.576Z,1008.83
2019-06-08T06:50:34.684Z,1008.90
2019-06-08T06:51:34.803Z,1008.97
2019-06-08T06:52:35.109Z,1009.00
2019-06-08T06:53:35.127Z,1009.05
2019-06-08T06:54:35.070Z,1009.02
2019-06-08T06:55:35.538Z,1009.06
2019-06-08T06:56:36.385Z,1009.06
2019-06-08T06:57:37.037Z,1008.94
2019-06-08T06:58:36.994Z,1009.13
2019-06-08T06:59:37.008Z,1009.23
2019-06-08T07:00:37.496Z,1009.15
2019-06-08T07:01:38.476Z,1009.05
2019-06-08T07:02:38.416Z,1009.14
2019-06-08T07:03:39.191Z,1009.14
2019-06-08T07:04:39.144Z,1009.16
2019-06-08T07:05:39.809Z,1009.05
2019-06-08T07:06:40.022Z,1009.05
2019-06-08T07:07:39.871Z,1009.21
2019-06-08T07:08:42.048Z,1009.26
2019-06-08T07:09:41.298Z,1009.27
2019-06-08T07:10:41.296Z,1009.36
2019-06-08T07:11:41.987Z,1009.33
2019-06-08T07:12:41.794Z,1009.26
2019-06-08T07:13:42.003Z,1009.26
2019-06-08T07:14:42.011Z,1009.30
2019-06-08T07:15:42.083Z,1009.36
2019-06-08T07:16:42.947Z,1009.37
2019-06-08T07:17:42.543Z,1009.24
2019-06-08T07:18:42.857Z,1009.33
2019-06-08T07:20:43.446Z,1009.35
2019-06-08T07:21:43.061Z,1009.43
2019-06-08T07:23:43.708Z,1009.41
2019-06-08T07:24:43.772Z,1009.53
2019-06-08T07:25:44.299Z,1009.54
2019-06-08T07:26:44.448Z,1009.47
2019-06-08T07:27:44.044Z,1009.58
2019-06-08T07:28:44.665Z,1009.48
2019-06-08T07:29:44.672Z,1009.43
2019-06-08T07:30:45.047Z,1009.38
2019-06-08T07:31:46.926Z,1009.46
2019-06-08T07:32:46.517Z,1009.48
2019-06-08T07:33:46.790Z,1009.49
2019-06-08T07:34:46.702Z,1009.53
2019-06-08T07:35:46.852Z,1009.52
2019-06-08T07:36:48.459Z,1009.68
2019-06-08T07:37:48.977Z,1009.61
2019-06-08T07:38:48.687Z,1009.64
2019-06-08T07:39:48.880Z,1009.55
2019-06-08T07:40:48.814Z,1009.59
2019-06-08T07:41:50.136Z,1009.61
2019-06-08T07:42:49.699Z,1009.56
2019-06-08T07:43:49.535Z,1009.77
2019-06-08T07:44:49.342Z,1009.58
2019-06-08T07:45:49.925Z,1009.65
2019-06-08T07:46:51.400Z,1009.65
2019-06-08T07:47:52.012Z,1009.68
2019-06-08T07:48:52.217Z,1009.55
2019-06-08T07:49:51.190Z,1009.77
2019-06-08T07:50:52.251Z,1009.70
2019-06-08T07:52:04.067Z,1009.64
2019-06-08T07:52:52.785Z,1009.62
2019-06-08T07:53:51.597Z,1009.67
2019-06-08T07:54:52.879Z,1009.69
2019-06-08T07:55:51.906Z,1009.70
2019-06-08T07:56:52.880Z,1009.68
2019-06-08T07:57:52.272Z,1009.65
2019-06-08T07:58:53.272Z,1009.62
2019-06-08T07:59:54.214Z,1009.66
2019-06-08T08:00:54.362Z,1009.73
2019-06-08T08:01:53.930Z,1009.68
2019-06-08T08:02:54.332Z,1009.67
2019-06-08T08:03:54.154Z,1009.74
2019-06-08T08:04:54.593Z,1009.79
2019-06-08T08:05:55.036Z,1009.74
2019-06-08T08:06:54.866Z,1009.79
2019-06-08T08:07:55.067Z,1009.74
2019-06-08T08:08:54.956Z,1009.86
2019-06-08T08:09:56.665Z,1009.86
2019-06-08T08:10:56.711Z,1009.88
2019-06-08T08:11:57.148Z,1009.80
2019-06-08T08:12:56.906Z,1009.89
2019-06-08T08:13:57.436Z,1009.86
2019-06-08T08:14:58.080Z,1009.86
2019-06-08T08:15:58.999Z,1009.88
2019-06-08T08:16:57.288Z,1009.81
2019-06-08T08:17:57.811Z,1009.76
2019-06-08T08:18:58.101Z,1009.92
2019-06-08T08:19:59.377Z,1009.91
2019-06-08T08:21:09.157Z,1009.98
2019-06-08T08:22:02.353Z,1009.73
2019-06-08T08:23:05.568Z,1009.91
2019-06-08T08:24:01.497Z,1009.95
2019-06-08T08:25:04.115Z,1009.82
2019-06-08T08:26:01.893Z,1009.87
2019-06-08T08:27:03.512Z,1010.00
2019-06-08T08:28:01.736Z,1010.02
2019-06-08T08:29:03.222Z,1009.87
2019-06-08T08:30:02.260Z,1009.93
2019-06-08T08:31:04.993Z,1009.86
2019-06-08T08:32:03.648Z,1009.92
2019-06-08T08:33:07.837Z,1009.85
2019-06-08T08:34:05.524Z,1009.91
2019-06-08T08:35:03.260Z,1009.89
2019-06-08T08:36:03.123Z,1009.87
2019-06-08T08:37:06.470Z,1009.87
2019-06-08T08:38:04.780Z,1009.93
2019-06-08T08:39:04.681Z,1010.03
2019-06-08T08:40:04.381Z,1009.90
2019-06-08T08:41:08.277Z,1009.86
2019-06-08T08:42:05.457Z,1009.94
2019-06-08T08:43:05.193Z,1009.87
2019-06-08T08:44:07.978Z,1009.88
2019-06-08T08:45:08.769Z,1009.96
2019-06-08T08:46:07.651Z,1009.45
2019-06-08T08:47:07.638Z,1009.96
2019-06-08T08:49:10.405Z,1009.92
2019-06-08T08:50:07.406Z,1010.09
2019-06-08T08:51:08.553Z,1009.95
2019-06-08T08:52:11.222Z,1010.00
2019-06-08T08:53:08.366Z,1009.96
2019-06-08T08:54:08.469Z,1010.03
2019-06-08T08:55:08.533Z,1010.01
2019-06-08T08:56:07.508Z,1009.88
2019-06-08T08:57:08.691Z,1009.89
2019-06-08T08:58:08.649Z,1010.12
2019-06-08T08:59:10.703Z,1009.97
2019-06-08T09:00:09.149Z,1010.08
2019-06-08T09:01:09.021Z,1009.97
2019-06-08T09:02:11.551Z,1010.01
2019-06-08T09:03:28.014Z,1010.03
2019-06-08T09:04:09.510Z,1009.88
2019-06-08T09:05:11.217Z,1009.94
2019-06-08T09:06:10.184Z,1009.81
2019-06-08T09:07:10.824Z,1009.97
2019-06-08T09:08:10.858Z,1009.90
2019-06-08T09:09:11.329Z,1009.94
2019-06-08T09:10:11.826Z,1009.96
2019-06-08T09:11:11.956Z,1009.97
2019-06-08T09:12:12.170Z,1010.06
2019-06-08T09:13:12.325Z,1010.02
2019-06-08T09:14:14.261Z,1010.10
2019-06-08T09:15:12.953Z,1009.98
2019-06-08T09:16:13.633Z,1010.00
2019-06-08T09:17:13.433Z,1010.06
2019-06-08T09:18:13.847Z,1010.10
2019-06-08T09:19:13.967Z,1010.15
2019-06-08T09:20:15.928Z,1010.18
2019-06-08T09:21:14.074Z,1010.19
2019-06-08T09:22:14.805Z,1010.24
2019-06-08T09:23:19.337Z,1010.39
2019-06-08T09:24:15.289Z,1010.30
2019-06-08T09:25:17.973Z,1010.35
2019-06-08T09:26:17.629Z,1010.36
2019-06-08T09:27:17.904Z,1010.35
2019-06-08T09:28:18.526Z,1010.24
2019-06-08T09:29:18.759Z,1010.34
2019-06-08T09:30:18.391Z,1010.37
2019-06-08T09:31:18.712Z,1010.38
2019-06-08T09:32:18.000Z,1010.39
2019-06-08T09:33:18.810Z,1010.45
2019-06-08T09:34:19.373Z,1010.43
2019-06-08T09:35:20.952Z,1010.51
2019-06-08T09:36:18.472Z,1010.42
2019-06-08T09:37:18.612Z,1010.45
2019-06-08T09:38:19.408Z,1010.43
2019-06-08T09:39:19.211Z,1010.45
2019-06-08T09:40:19.061Z,1010.30
2019-06-08T09:41:19.795Z,1010.33
2019-06-08T09:42:21.244Z,1010.53
2019-06-08T09:43:20.047Z,1010.49
2019-06-08T09:44:20.585Z,1010.45
2019-06-08T09:45:21.603Z,1010.53
2019-06-08T09:46:21.368Z,1010.56
2019-06-08T09:47:22.332Z,1010.51
2019-06-08T09:48:25.186Z,1010.62
2019-06-08T09:49:28.011Z,1010.48
2019-06-08T09:50:23.608Z,1010.57
2019-06-08T09:51:30.555Z,1010.57
2019-06-08T09:52:28.209Z,1010.63
2019-06-08T09:53:31.906Z,1010.64
2019-06-08T09:54:23.821Z,1010.53
2019-06-08T09:55:25.524Z,1010.38
2019-06-08T09:56:30.206Z,1010.50
2019-06-08T09:57:24.044Z,1010.37
2019-06-08T09:58:24.150Z,1010.56
2019-06-08T09:59:24.583Z,1010.57
2019-06-08T10:00:26.358Z,1010.55
2019-06-08T10:01:24.800Z,1010.58
2019-06-08T10:02:28.156Z,1010.36
2019-06-08T10:03:30.954Z,1010.50
2019-06-08T10:04:29.202Z,1010.59
2019-06-08T10:05:27.569Z,1010.53
2019-06-08T10:06:27.103Z,1010.56
2019-06-08T10:07:31.059Z,1010.45
2019-06-08T10:08:31.005Z,1010.53
2019-06-08T10:10:26.794Z,1010.60
2019-06-08T10:11:28.044Z,1010.64
2019-06-08T10:12:28.223Z,1010.55
2019-06-08T10:13:28.058Z,1010.61
2019-06-08T10:14:28.854Z,1010.54
2019-06-08T10:15:28.145Z,1010.58
2019-06-08T10:16:30.695Z,1010.63
2019-06-08T10:17:28.779Z,1010.60
2019-06-08T10:18:29.201Z,1010.38
2019-06-08T10:19:29.918Z,1010.58
2019-06-08T10:20:30.832Z,1010.61
2019-06-08T10:21:29.521Z,1010.67
2019-06-08T10:22:29.854Z,1010.76
2019-06-08T10:23:34.223Z,1010.73
2019-06-08T10:24:30.012Z,1010.73
2019-06-08T10:25:30.981Z,1010.74
2019-06-08T10:26:30.824Z,1010.74
2019-06-08T10:27:31.723Z,1010.62
2019-06-08T10:28:32.120Z,1010.64
2019-06-08T10:29:32.128Z,1010.64
2019-06-08T10:30:33.293Z,1010.64
2019-06-08T10:31:39.019Z,1010.80
2019-06-08T10:32:33.117Z,1010.58
2019-06-08T10:33:33.420Z,1010.73
2019-06-08T10:34:34.105Z,1010.71
2019-06-08T10:35:33.885Z,1010.84
2019-06-08T10:36:34.671Z,1010.86
2019-06-08T10:37:34.650Z,1010.96
2019-06-08T10:38:35.148Z,1010.88
2019-06-08T10:39:35.022Z,1011.05
2019-06-08T10:40:35.486Z,1011.02
2019-06-08T10:41:35.893Z,1010.88
2019-06-08T10:42:39.876Z,1010.82
2019-06-08T10:43:38.297Z,1010.91
2019-06-08T10:44:38.177Z,1010.86
2019-06-08T10:45:37.358Z,1011.01
2019-06-08T10:46:40.346Z,1010.94
2019-06-08T10:47:37.944Z,1010.98
2019-06-08T10:48:37.950Z,1011.01
2019-06-08T10:49:38.410Z,1011.06
2019-06-08T10:50:37.914Z,1010.95
2019-06-08T10:51:40.831Z,1010.95
2019-06-08T10:52:39.124Z,1011.01
2019-06-08T10:53:46.560Z,1011.00
2019-06-08T10:54:39.358Z,1010.94
2019-06-08T10:55:40.845Z,1010.99
2019-06-08T10:56:39.883Z,1010.89
2019-06-08T10:57:40.017Z,1010.92
2019-06-08T10:58:40.009Z,1010.92
2019-06-08T10:59:40.459Z,1010.88
2019-06-08T11:00:39.816Z,1010.93
2019-06-08T11:01:40.222Z,1010.97
2019-06-08T11:02:40.779Z,1011.01
2019-06-08T11:03:40.982Z,1011.00
2019-06-08T11:04:43.406Z,1010.95
2019-06-08T11:05:41.498Z,1010.86
2019-06-08T11:06:41.484Z,1011.00
2019-06-08T11:07:42.717Z,1010.97
2019-06-08T11:08:42.125Z,1010.95
2019-06-08T11:09:42.966Z,1011.03
2019-06-08T11:10:43.277Z,1010.99
2019-06-08T11:11:43.315Z,1010.93
2019-06-08T11:12:44.126Z,1010.97
2019-06-08T11:13:44.050Z,1010.98
2019-06-08T11:14:45.058Z,1011.09
2019-06-08T11:15:44.861Z,1010.91
2019-06-08T11:16:47.448Z,1010.91
2019-06-08T11:17:45.372Z,1011.03
2019-06-08T11:18:45.239Z,1011.09
2019-06-08T11:19:47.972Z,1011.00
2019-06-08T11:20:47.895Z,1010.99
2019-06-08T11:21:48.106Z,1010.89
2019-06-08T11:22:49.787Z,1010.81
2019-06-08T11:24:04.537Z,1011.05
2019-06-08T11:24:48.551Z,1010.94
2019-06-08T11:25:48.898Z,1011.00
2019-06-08T11:26:47.956Z,1010.96
2019-06-08T11:27:47.677Z,1010.94
2019-06-08T11:28:51.104Z,1010.98
2019-06-08T11:29:48.365Z,1011.08
2019-06-08T11:30:48.879Z,1011.03
2019-06-08T11:31:51.019Z,1011.07
2019-06-08T11:32:48.850Z,1011.05
2019-06-08T11:33:49.311Z,1011.14
2019-06-08T11:34:49.795Z,1010.98
2019-06-08T11:35:49.793Z,1011.15
2019-06-08T11:36:51.505Z,1011.14
2019-06-08T11:37:50.503Z,1011.14
2019-06-08T11:38:50.329Z,1010.95
2019-06-08T11:39:51.256Z,1011.08
2019-06-08T11:40:51.360Z,1011.09
2019-06-08T11:41:51.217Z,1011.00
2019-06-08T11:42:51.783Z,1011.11
2019-06-08T11:43:52.205Z,1011.04
2019-06-08T11:44:52.513Z,1011.15
2019-06-08T11:45:52.514Z,1011.06
2019-06-08T11:46:52.449Z,1011.14
2019-06-08T11:47:53.250Z,1011.18
2019-06-08T11:48:53.103Z,1011.20
2019-06-08T11:49:53.987Z,1011.01
2019-06-08T11:50:54.608Z,1011.11
2019-06-08T11:51:53.961Z,1011.12
2019-06-08T11:52:54.260Z,1011.20
2019-06-08T11:53:55.130Z,1011.11
2019-06-08T11:54:57.353Z,1011.17
2019-06-08T11:55:58.370Z,1011.27
2019-06-08T11:56:57.605Z,1011.18
2019-06-08T11:57:58.577Z,1011.21
2019-06-08T11:58:57.921Z,1011.03
2019-06-08T11:59:58.475Z,1010.98
2019-06-08T12:01:00.798Z,1010.95
2019-06-08T12:01:58.584Z,1011.02
2019-06-08T12:02:58.140Z,1011.04
2019-06-08T12:03:58.003Z,1011.12
2019-06-08T12:04:57.979Z,1011.23
2019-06-08T12:05:58.897Z,1011.08
2019-06-08T12:06:59.326Z,1011.22
2019-06-08T12:07:59.381Z,1011.23
2019-06-08T12:09:00.408Z,1011.06
2019-06-08T12:10:00.253Z,1010.97
2019-06-08T12:11:01.970Z,1011.18
2019-06-08T12:12:00.876Z,1011.18
2019-06-08T12:13:00.968Z,1011.28
2019-06-08T12:14:00.383Z,1011.21
2019-06-08T12:15:03.003Z,1011.09
2019-06-08T12:16:02.947Z,1011.18
2019-06-08T12:17:03.050Z,1011.00
2019-06-08T12:18:03.366Z,1011.07
2019-06-08T12:19:04.359Z,1011.10